sensor_id;sensor_type;location;lat;lon;timestamp;P1;durP1;ratioP1;P2;durP2;ratioP2
50769;SDS011;36740;48.698;11.472;2023-07-29T00:02:34;4.18;;;2.22;;
50769;SDS011;36740;48.698;11.472;2023-07-29T00:05:19;3.72;;;2.40;;
50769;SDS011;36740;48.698;11.472;2023-07-29T00:08:05;4.40;;;2.63;;
50769;SDS011;36740;48.698;11.472;2023-07-29T00:10:51;6.60;;;3.00;;
50769;SDS011;36740;48.698;11.472;2023-07-29T00:13:39;5.25;;;2.75;;
50769;SDS011;36740;48.698;11.472;2023-07-29T00:16:25;8.13;;;3.15;;
50769;SDS011;36740;48.698;11.472;2023-07-29T00:19:10;7.53;;;3.38;;
50769;SDS011;36740;48.698;11.472;2023-07-29T00:21:56;14.38;;;3.30;;
50769;SDS011;36740;48.698;11.472;2023-07-29T00:24:41;4.82;;;2.53;;
50769;SDS011;36740;48.698;11.472;2023-07-29T00:27:27;7.05;;;2.97;;
50769;SDS011;36740;48.698;11.472;2023-07-29T00:30:13;5.32;;;3.90;;
50769;SDS011;36740;48.698;11.472;2023-07-29T00:32:58;3.85;;;2.13;;
50769;SDS011;36740;48.698;11.472;2023-07-29T00:35:44;5.50;;;3.10;;
50769;SDS011;36740;48.698;11.472;2023-07-29T00:38:29;4.72;;;2.72;;
50769;SDS011;36740;48.698;11.472;2023-07-29T00:41:15;4.25;;;3.45;;
50769;SDS011;36740;48.698;11.472;2023-07-29T00:44:01;5.70;;;3.17;;
50769;SDS011;36740;48.698;11.472;2023-07-29T00:46:46;5.45;;;2.85;;
50769;SDS011;36740;48.698;11.472;2023-07-29T00:49:33;4.03;;;1.95;;
50769;SDS011;36740;48.698;11.472;2023-07-29T00:52:19;4.50;;;3.50;;
50769;SDS011;36740;48.698;11.472;2023-07-29T00:55:05;3.40;;;2.58;;
50769;SDS011;36740;48.698;11.472;2023-07-29T00:57:51;9.30;;;4.32;;
50769;SDS011;36740;48.698;11.472;2023-07-29T01:00:39;14.65;;;3.10;;
50769;SDS011;36740;48.698;11.472;2023-07-29T01:03:25;6.38;;;3.15;;
50769;SDS011;36740;48.698;11.472;2023-07-29T01:09:10;5.40;;;3.10;;
50769;SDS011;36740;48.698;11.472;2023-07-29T01:17:35;8.82;;;3.15;;
50769;SDS011;36740;48.698;11.472;2023-07-29T01:20:23;14.13;;;2.30;;
50769;SDS011;36740;48.698;11.472;2023-07-29T01:23:09;8.02;;;3.70;;
50769;SDS011;36740;48.698;11.472;2023-07-29T01:25:55;5.63;;;3.50;;
50769;SDS011;36740;48.698;11.472;2023-07-29T01:28:40;3.13;;;1.95;;
50769;SDS011;36740;48.698;11.472;2023-07-29T01:34:32;6.40;;;2.30;;
50769;SDS011;36740;48.698;11.472;2023-07-29T01:37:19;4.40;;;2.33;;
50769;SDS011;36740;48.698;11.472;2023-07-29T01:40:07;2.92;;;2.05;;
50769;SDS011;36740;48.698;11.472;2023-07-29T01:42:54;7.60;;;3.65;;
50769;SDS011;36740;48.698;11.472;2023-07-29T01:45:39;6.10;;;3.05;;
50769;SDS011;36740;48.698;11.472;2023-07-29T01:48:25;3.92;;;2.22;;
50769;SDS011;36740;48.698;11.472;2023-07-29T01:51:12;6.30;;;2.70;;
50769;SDS011;36740;48.698;11.472;2023-07-29T01:53:58;4.32;;;2.50;;
50769;SDS011;36740;48.698;11.472;2023-07-29T01:56:45;4.82;;;2.22;;
50769;SDS011;36740;48.698;11.472;2023-07-29T01:59:30;5.07;;;2.97;;
50769;SDS011;36740;48.698;11.472;2023-07-29T02:02:16;4.35;;;1.92;;
50769;SDS011;36740;48.698;11.472;2023-07-29T02:05:02;4.68;;;2.47;;
50769;SDS011;36740;48.698;11.472;2023-07-29T02:07:47;6.95;;;3.15;;
50769;SDS011;36740;48.698;11.472;2023-07-29T02:10:35;5.07;;;3.35;;
50769;SDS011;36740;48.698;11.472;2023-07-29T02:13:20;6.72;;;2.17;;
50769;SDS011;36740;48.698;11.472;2023-07-29T02:16:06;8.60;;;5.28;;
50769;SDS011;36740;48.698;11.472;2023-07-29T02:18:52;5.80;;;3.40;;
50769;SDS011;36740;48.698;11.472;2023-07-29T02:21:37;4.72;;;2.25;;
50769;SDS011;36740;48.698;11.472;2023-07-29T02:24:23;10.32;;;3.20;;
50769;SDS011;36740;48.698;11.472;2023-07-29T02:27:09;4.10;;;2.72;;
50769;SDS011;36740;48.698;11.472;2023-07-29T02:29:54;9.05;;;3.47;;
50769;SDS011;36740;48.698;11.472;2023-07-29T02:32:40;5.47;;;2.92;;
50769;SDS011;36740;48.698;11.472;2023-07-29T02:35:25;8.70;;;4.22;;
50769;SDS011;36740;48.698;11.472;2023-07-29T02:38:11;6.18;;;3.60;;
50769;SDS011;36740;48.698;11.472;2023-07-29T02:40:57;6.88;;;3.05;;
50769;SDS011;36740;48.698;11.472;2023-07-29T02:43:43;39.15;;;6.40;;
50769;SDS011;36740;48.698;11.472;2023-07-29T02:46:28;5.50;;;2.88;;
50769;SDS011;36740;48.698;11.472;2023-07-29T02:49:14;6.30;;;3.97;;
50769;SDS011;36740;48.698;11.472;2023-07-29T02:52:00;10.82;;;5.03;;
50769;SDS011;36740;48.698;11.472;2023-07-29T02:54:45;7.53;;;4.07;;
50769;SDS011;36740;48.698;11.472;2023-07-29T02:57:31;5.85;;;4.13;;
50769;SDS011;36740;48.698;11.472;2023-07-29T03:00:16;10.40;;;5.68;;
50769;SDS011;36740;48.698;11.472;2023-07-29T03:03:02;7.55;;;3.95;;
50769;SDS011;36740;48.698;11.472;2023-07-29T03:05:48;19.17;;;6.03;;
50769;SDS011;36740;48.698;11.472;2023-07-29T03:08:34;6.03;;;2.95;;
50769;SDS011;36740;48.698;11.472;2023-07-29T03:11:20;7.70;;;4.82;;
50769;SDS011;36740;48.698;11.472;2023-07-29T03:14:05;7.03;;;4.15;;
50769;SDS011;36740;48.698;11.472;2023-07-29T03:16:51;5.07;;;3.33;;
50769;SDS011;36740;48.698;11.472;2023-07-29T03:19:37;7.10;;;3.28;;
50769;SDS011;36740;48.698;11.472;2023-07-29T03:22:23;7.93;;;3.88;;
50769;SDS011;36740;48.698;11.472;2023-07-29T03:25:08;6.88;;;3.78;;
50769;SDS011;36740;48.698;11.472;2023-07-29T03:27:54;5.88;;;3.75;;
50769;SDS011;36740;48.698;11.472;2023-07-29T03:30:40;4.13;;;2.90;;
50769;SDS011;36740;48.698;11.472;2023-07-29T03:33:26;4.65;;;3.40;;
50769;SDS011;36740;48.698;11.472;2023-07-29T03:36:11;7.93;;;3.53;;
50769;SDS011;36740;48.698;11.472;2023-07-29T03:38:57;11.70;;;4.10;;
50769;SDS011;36740;48.698;11.472;2023-07-29T03:41:43;10.63;;;3.40;;
50769;SDS011;36740;48.698;11.472;2023-07-29T03:44:29;6.35;;;4.00;;
50769;SDS011;36740;48.698;11.472;2023-07-29T03:47:16;6.07;;;3.22;;
50769;SDS011;36740;48.698;11.472;2023-07-29T03:50:02;5.47;;;3.25;;
50769;SDS011;36740;48.698;11.472;2023-07-29T03:52:47;5.07;;;3.33;;
50769;SDS011;36740;48.698;11.472;2023-07-29T03:55:33;2.55;;;2.28;;
50769;SDS011;36740;48.698;11.472;2023-07-29T03:58:18;5.70;;;3.45;;
50769;SDS011;36740;48.698;11.472;2023-07-29T04:01:04;6.57;;;2.90;;
50769;SDS011;36740;48.698;11.472;2023-07-29T04:03:50;6.13;;;3.13;;
50769;SDS011;36740;48.698;11.472;2023-07-29T04:06:37;6.72;;;3.78;;
50769;SDS011;36740;48.698;11.472;2023-07-29T04:09:23;5.10;;;3.00;;
50769;SDS011;36740;48.698;11.472;2023-07-29T04:12:09;11.73;;;4.55;;
50769;SDS011;36740;48.698;11.472;2023-07-29T04:14:55;4.72;;;2.88;;
50769;SDS011;36740;48.698;11.472;2023-07-29T04:17:40;4.57;;;3.05;;
50769;SDS011;36740;48.698;11.472;2023-07-29T04:20:26;6.65;;;4.13;;
50769;SDS011;36740;48.698;11.472;2023-07-29T04:23:12;6.72;;;3.65;;
50769;SDS011;36740;48.698;11.472;2023-07-29T04:25:57;6.28;;;3.92;;
50769;SDS011;36740;48.698;11.472;2023-07-29T04:28:43;3.92;;;2.80;;
50769;SDS011;36740;48.698;11.472;2023-07-29T04:31:29;4.68;;;3.10;;
50769;SDS011;36740;48.698;11.472;2023-07-29T04:34:15;7.05;;;4.22;;
50769;SDS011;36740;48.698;11.472;2023-07-29T04:37:00;4.55;;;2.78;;
50769;SDS011;36740;48.698;11.472;2023-07-29T04:39:49;5.72;;;3.10;;
50769;SDS011;36740;48.698;11.472;2023-07-29T04:42:34;5.05;;;2.72;;
50769;SDS011;36740;48.698;11.472;2023-07-29T04:45:21;9.15;;;4.40;;
50769;SDS011;36740;48.698;11.472;2023-07-29T04:48:07;7.45;;;3.58;;
50769;SDS011;36740;48.698;11.472;2023-07-29T04:50:52;5.40;;;3.22;;
50769;SDS011;36740;48.698;11.472;2023-07-29T04:53:38;6.32;;;3.45;;
50769;SDS011;36740;48.698;11.472;2023-07-29T04:56:24;7.68;;;2.90;;
50769;SDS011;36740;48.698;11.472;2023-07-29T04:59:10;4.88;;;2.65;;
50769;SDS011;36740;48.698;11.472;2023-07-29T05:01:58;9.82;;;4.25;;
50769;SDS011;36740;48.698;11.472;2023-07-29T05:04:43;8.43;;;4.63;;
50769;SDS011;36740;48.698;11.472;2023-07-29T05:07:29;6.35;;;3.47;;
50769;SDS011;36740;48.698;11.472;2023-07-29T05:10:15;6.82;;;2.90;;
50769;SDS011;36740;48.698;11.472;2023-07-29T05:13:01;6.60;;;2.92;;
50769;SDS011;36740;48.698;11.472;2023-07-29T05:15:47;8.27;;;4.57;;
50769;SDS011;36740;48.698;11.472;2023-07-29T05:18:32;7.72;;;4.20;;
50769;SDS011;36740;48.698;11.472;2023-07-29T05:21:18;18.52;;;4.50;;
50769;SDS011;36740;48.698;11.472;2023-07-29T05:24:06;5.00;;;3.53;;
50769;SDS011;36740;48.698;11.472;2023-07-29T05:26:52;7.63;;;5.25;;
50769;SDS011;36740;48.698;11.472;2023-07-29T05:29:38;3.97;;;2.80;;
50769;SDS011;36740;48.698;11.472;2023-07-29T05:32:23;8.15;;;4.05;;
50769;SDS011;36740;48.698;11.472;2023-07-29T05:35:09;5.75;;;3.08;;
50769;SDS011;36740;48.698;11.472;2023-07-29T05:37:55;6.00;;;3.55;;
50769;SDS011;36740;48.698;11.472;2023-07-29T05:40:41;5.47;;;2.95;;
50769;SDS011;36740;48.698;11.472;2023-07-29T05:43:26;4.60;;;3.03;;
50769;SDS011;36740;48.698;11.472;2023-07-29T05:46:12;14.57;;;4.25;;
50769;SDS011;36740;48.698;11.472;2023-07-29T05:48:58;3.03;;;2.67;;
50769;SDS011;36740;48.698;11.472;2023-07-29T05:51:43;8.80;;;3.30;;
50769;SDS011;36740;48.698;11.472;2023-07-29T05:54:29;4.85;;;4.00;;
50769;SDS011;36740;48.698;11.472;2023-07-29T05:57:15;6.00;;;2.78;;
50769;SDS011;36740;48.698;11.472;2023-07-29T06:00:00;3.88;;;2.40;;
50769;SDS011;36740;48.698;11.472;2023-07-29T06:02:46;6.18;;;3.65;;
50769;SDS011;36740;48.698;11.472;2023-07-29T06:05:31;8.27;;;3.15;;
50769;SDS011;36740;48.698;11.472;2023-07-29T06:08:17;5.07;;;2.90;;
50769;SDS011;36740;48.698;11.472;2023-07-29T06:11:03;4.88;;;3.40;;
50769;SDS011;36740;48.698;11.472;2023-07-29T06:13:51;7.03;;;3.15;;
50769;SDS011;36740;48.698;11.472;2023-07-29T06:16:37;5.90;;;3.03;;
50769;SDS011;36740;48.698;11.472;2023-07-29T06:19:22;5.30;;;3.33;;
50769;SDS011;36740;48.698;11.472;2023-07-29T06:22:09;11.00;;;3.53;;
50769;SDS011;36740;48.698;11.472;2023-07-29T06:24:55;5.85;;;2.78;;
50769;SDS011;36740;48.698;11.472;2023-07-29T06:27:40;5.13;;;2.90;;
50769;SDS011;36740;48.698;11.472;2023-07-29T06:30:26;6.25;;;3.85;;
50769;SDS011;36740;48.698;11.472;2023-07-29T06:33:12;8.02;;;3.55;;
50769;SDS011;36740;48.698;11.472;2023-07-29T06:35:57;6.47;;;2.72;;
50769;SDS011;36740;48.698;11.472;2023-07-29T06:38:43;4.63;;;3.05;;
50769;SDS011;36740;48.698;11.472;2023-07-29T06:41:28;5.03;;;3.22;;
50769;SDS011;36740;48.698;11.472;2023-07-29T06:44:14;6.15;;;2.97;;
50769;SDS011;36740;48.698;11.472;2023-07-29T06:47:00;5.88;;;2.88;;
50769;SDS011;36740;48.698;11.472;2023-07-29T06:49:45;5.35;;;2.75;;
50769;SDS011;36740;48.698;11.472;2023-07-29T06:52:31;13.98;;;4.05;;
50769;SDS011;36740;48.698;11.472;2023-07-29T06:55:16;3.70;;;2.92;;
50769;SDS011;36740;48.698;11.472;2023-07-29T06:58:02;4.60;;;2.85;;
50769;SDS011;36740;48.698;11.472;2023-07-29T07:00:48;5.22;;;2.78;;
50769;SDS011;36740;48.698;11.472;2023-07-29T07:03:33;4.85;;;2.10;;
50769;SDS011;36740;48.698;11.472;2023-07-29T07:06:20;6.18;;;3.40;;
50769;SDS011;36740;48.698;11.472;2023-07-29T07:09:06;5.32;;;2.53;;
50769;SDS011;36740;48.698;11.472;2023-07-29T07:11:52;5.35;;;2.22;;
50769;SDS011;36740;48.698;11.472;2023-07-29T07:14:41;3.58;;;2.30;;
50769;SDS011;36740;48.698;11.472;2023-07-29T07:17:26;4.97;;;2.92;;
50769;SDS011;36740;48.698;11.472;2023-07-29T07:20:12;6.15;;;3.50;;
50769;SDS011;36740;48.698;11.472;2023-07-29T07:22:57;5.53;;;2.63;;
50769;SDS011;36740;48.698;11.472;2023-07-29T07:25:43;4.00;;;2.97;;
50769;SDS011;36740;48.698;11.472;2023-07-29T07:28:29;4.68;;;2.50;;
50769;SDS011;36740;48.698;11.472;2023-07-29T07:31:14;5.10;;;3.38;;
50769;SDS011;36740;48.698;11.472;2023-07-29T07:34:01;4.30;;;2.28;;
50769;SDS011;36740;48.698;11.472;2023-07-29T07:36:48;11.25;;;3.15;;
50769;SDS011;36740;48.698;11.472;2023-07-29T07:39:34;4.25;;;2.33;;
50769;SDS011;36740;48.698;11.472;2023-07-29T07:42:20;3.45;;;2.50;;
50769;SDS011;36740;48.698;11.472;2023-07-29T07:45:05;3.78;;;2.80;;
50769;SDS011;36740;48.698;11.472;2023-07-29T07:47:51;3.80;;;2.95;;
50769;SDS011;36740;48.698;11.472;2023-07-29T07:50:38;4.40;;;3.33;;
50769;SDS011;36740;48.698;11.472;2023-07-29T07:53:24;6.45;;;2.67;;
50769;SDS011;36740;48.698;11.472;2023-07-29T07:56:11;12.32;;;3.58;;
50769;SDS011;36740;48.698;11.472;2023-07-29T07:58:56;4.65;;;3.50;;
50769;SDS011;36740;48.698;11.472;2023-07-29T08:01:42;8.40;;;3.28;;
50769;SDS011;36740;48.698;11.472;2023-07-29T08:04:30;6.38;;;3.13;;
50769;SDS011;36740;48.698;11.472;2023-07-29T08:07:16;5.35;;;3.30;;
50769;SDS011;36740;48.698;11.472;2023-07-29T08:10:02;6.88;;;3.67;;
50769;SDS011;36740;48.698;11.472;2023-07-29T08:12:48;5.45;;;3.65;;
50769;SDS011;36740;48.698;11.472;2023-07-29T08:15:34;8.15;;;3.55;;
50769;SDS011;36740;48.698;11.472;2023-07-29T08:18:20;5.47;;;2.97;;
50769;SDS011;36740;48.698;11.472;2023-07-29T08:21:06;4.18;;;2.47;;
50769;SDS011;36740;48.698;11.472;2023-07-29T08:23:52;4.13;;;2.90;;
50769;SDS011;36740;48.698;11.472;2023-07-29T08:26:37;5.28;;;3.60;;
50769;SDS011;36740;48.698;11.472;2023-07-29T08:29:23;5.10;;;3.45;;
50769;SDS011;36740;48.698;11.472;2023-07-29T08:32:30;4.78;;;3.10;;
50769;SDS011;36740;48.698;11.472;2023-07-29T08:35:16;4.55;;;2.55;;
50769;SDS011;36740;48.698;11.472;2023-07-29T08:38:02;5.88;;;2.85;;
50769;SDS011;36740;48.698;11.472;2023-07-29T08:43:56;6.95;;;4.13;;
50769;SDS011;36740;48.698;11.472;2023-07-29T08:49:28;4.97;;;2.92;;
50769;SDS011;36740;48.698;11.472;2023-07-29T08:52:17;3.95;;;2.95;;
50769;SDS011;36740;48.698;11.472;2023-07-29T08:55:03;7.28;;;3.88;;
50769;SDS011;36740;48.698;11.472;2023-07-29T08:57:50;7.15;;;3.53;;
50769;SDS011;36740;48.698;11.472;2023-07-29T09:00:35;4.88;;;3.00;;
50769;SDS011;36740;48.698;11.472;2023-07-29T09:03:21;7.38;;;3.47;;
50769;SDS011;36740;48.698;11.472;2023-07-29T09:06:07;6.35;;;3.60;;
50769;SDS011;36740;48.698;11.472;2023-07-29T09:08:55;6.03;;;3.40;;
50769;SDS011;36740;48.698;11.472;2023-07-29T09:11:44;6.50;;;3.10;;
50769;SDS011;36740;48.698;11.472;2023-07-29T09:14:29;5.35;;;2.83;;
50769;SDS011;36740;48.698;11.472;2023-07-29T09:17:15;5.05;;;2.80;;
50769;SDS011;36740;48.698;11.472;2023-07-29T09:20:01;5.75;;;3.08;;
50769;SDS011;36740;48.698;11.472;2023-07-29T09:22:46;6.88;;;2.78;;
50769;SDS011;36740;48.698;11.472;2023-07-29T09:25:33;7.03;;;4.03;;
50769;SDS011;36740;48.698;11.472;2023-07-29T09:28:18;3.95;;;2.53;;
50769;SDS011;36740;48.698;11.472;2023-07-29T09:31:04;6.00;;;4.05;;
50769;SDS011;36740;48.698;11.472;2023-07-29T09:33:55;10.05;;;3.60;;
50769;SDS011;36740;48.698;11.472;2023-07-29T09:36:42;5.68;;;3.20;;
50769;SDS011;36740;48.698;11.472;2023-07-29T09:39:28;5.05;;;3.35;;
50769;SDS011;36740;48.698;11.472;2023-07-29T09:42:20;2.97;;;2.47;;
50769;SDS011;36740;48.698;11.472;2023-07-29T09:45:06;6.45;;;3.08;;
50769;SDS011;36740;48.698;11.472;2023-07-29T09:47:52;2.78;;;2.13;;
50769;SDS011;36740;48.698;11.472;2023-07-29T09:50:38;10.40;;;3.17;;
50769;SDS011;36740;48.698;11.472;2023-07-29T09:53:24;5.70;;;3.13;;
50769;SDS011;36740;48.698;11.472;2023-07-29T09:56:10;11.30;;;3.50;;
50769;SDS011;36740;48.698;11.472;2023-07-29T09:58:56;5.78;;;3.65;;
50769;SDS011;36740;48.698;11.472;2023-07-29T10:01:42;4.57;;;3.50;;
50769;SDS011;36740;48.698;11.472;2023-07-29T10:04:28;5.90;;;2.97;;
50769;SDS011;36740;48.698;11.472;2023-07-29T10:07:14;5.30;;;2.95;;
50769;SDS011;36740;48.698;11.472;2023-07-29T10:10:01;6.55;;;3.95;;
50769;SDS011;36740;48.698;11.472;2023-07-29T10:12:47;4.88;;;2.97;;
50769;SDS011;36740;48.698;11.472;2023-07-29T10:15:33;6.68;;;3.85;;
50769;SDS011;36740;48.698;11.472;2023-07-29T10:18:18;11.52;;;4.03;;
50769;SDS011;36740;48.698;11.472;2023-07-29T10:21:05;5.20;;;3.13;;
50769;SDS011;36740;48.698;11.472;2023-07-29T10:23:52;5.55;;;3.28;;
50769;SDS011;36740;48.698;11.472;2023-07-29T10:26:38;7.07;;;3.15;;
50769;SDS011;36740;48.698;11.472;2023-07-29T10:29:28;9.38;;;3.85;;
50769;SDS011;36740;48.698;11.472;2023-07-29T10:32:14;5.35;;;2.72;;
50769;SDS011;36740;48.698;11.472;2023-07-29T10:35:00;4.25;;;2.53;;
50769;SDS011;36740;48.698;11.472;2023-07-29T10:37:45;7.38;;;2.67;;
50769;SDS011;36740;48.698;11.472;2023-07-29T10:40:50;4.57;;;2.25;;
50769;SDS011;36740;48.698;11.472;2023-07-29T10:43:37;5.18;;;2.55;;
50769;SDS011;36740;48.698;11.472;2023-07-29T10:46:25;3.47;;;2.20;;
50769;SDS011;36740;48.698;11.472;2023-07-29T10:49:11;5.53;;;2.58;;
50769;SDS011;36740;48.698;11.472;2023-07-29T10:51:56;5.05;;;2.35;;
50769;SDS011;36740;48.698;11.472;2023-07-29T10:54:43;3.67;;;2.00;;
50769;SDS011;36740;48.698;11.472;2023-07-29T10:57:35;4.95;;;2.65;;
50769;SDS011;36740;48.698;11.472;2023-07-29T11:00:21;4.57;;;2.53;;
50769;SDS011;36740;48.698;11.472;2023-07-29T11:03:07;3.92;;;2.15;;
50769;SDS011;36740;48.698;11.472;2023-07-29T11:05:53;3.92;;;2.40;;
50769;SDS011;36740;48.698;11.472;2023-07-29T11:08:38;3.13;;;2.08;;
50769;SDS011;36740;48.698;11.472;2023-07-29T11:11:24;4.00;;;2.15;;
50769;SDS011;36740;48.698;11.472;2023-07-29T11:14:10;4.82;;;2.78;;
50769;SDS011;36740;48.698;11.472;2023-07-29T11:16:56;3.30;;;1.90;;
50769;SDS011;36740;48.698;11.472;2023-07-29T11:19:44;7.53;;;2.88;;
50769;SDS011;36740;48.698;11.472;2023-07-29T11:22:30;5.10;;;2.35;;
50769;SDS011;36740;48.698;11.472;2023-07-29T11:25:16;4.72;;;2.55;;
50769;SDS011;36740;48.698;11.472;2023-07-29T11:28:02;5.55;;;2.60;;
50769;SDS011;36740;48.698;11.472;2023-07-29T11:30:49;4.13;;;2.35;;
50769;SDS011;36740;48.698;11.472;2023-07-29T11:33:38;3.05;;;2.00;;
50769;SDS011;36740;48.698;11.472;2023-07-29T11:36:24;4.32;;;2.25;;
50769;SDS011;36740;48.698;11.472;2023-07-29T11:39:09;4.53;;;2.58;;
50769;SDS011;36740;48.698;11.472;2023-07-29T11:41:57;5.63;;;2.88;;
50769;SDS011;36740;48.698;11.472;2023-07-29T11:44:43;7.70;;;2.85;;
50769;SDS011;36740;48.698;11.472;2023-07-29T11:47:32;3.97;;;2.80;;
50769;SDS011;36740;48.698;11.472;2023-07-29T11:50:24;5.10;;;2.67;;
50769;SDS011;36740;48.698;11.472;2023-07-29T11:53:10;4.03;;;2.28;;
50769;SDS011;36740;48.698;11.472;2023-07-29T11:55:56;6.50;;;3.63;;
50769;SDS011;36740;48.698;11.472;2023-07-29T11:58:42;5.57;;;2.28;;
50769;SDS011;36740;48.698;11.472;2023-07-29T12:01:27;4.88;;;2.47;;
50769;SDS011;36740;48.698;11.472;2023-07-29T12:04:14;5.75;;;2.53;;
50769;SDS011;36740;48.698;11.472;2023-07-29T12:06:59;4.90;;;1.95;;
50769;SDS011;36740;48.698;11.472;2023-07-29T12:09:46;2.55;;;1.55;;
50769;SDS011;36740;48.698;11.472;2023-07-29T12:12:31;4.70;;;1.77;;
50769;SDS011;36740;48.698;11.472;2023-07-29T12:15:27;5.72;;;2.55;;
50769;SDS011;36740;48.698;11.472;2023-07-29T12:18:13;2.95;;;2.10;;
50769;SDS011;36740;48.698;11.472;2023-07-29T12:21:01;4.25;;;2.47;;
50769;SDS011;36740;48.698;11.472;2023-07-29T12:23:46;3.28;;;2.35;;
50769;SDS011;36740;48.698;11.472;2023-07-29T12:26:32;3.20;;;2.05;;
50769;SDS011;36740;48.698;11.472;2023-07-29T12:29:18;5.47;;;2.40;;
50769;SDS011;36740;48.698;11.472;2023-07-29T12:32:07;3.28;;;1.95;;
50769;SDS011;36740;48.698;11.472;2023-07-29T12:34:53;2.25;;;1.67;;
50769;SDS011;36740;48.698;11.472;2023-07-29T12:37:39;3.20;;;1.80;;
50769;SDS011;36740;48.698;11.472;2023-07-29T12:40:28;2.80;;;1.55;;
50769;SDS011;36740;48.698;11.472;2023-07-29T12:43:13;5.70;;;3.00;;
50769;SDS011;36740;48.698;11.472;2023-07-29T12:46:00;5.03;;;2.08;;
50769;SDS011;36740;48.698;11.472;2023-07-29T12:48:46;5.03;;;2.50;;
50769;SDS011;36740;48.698;11.472;2023-07-29T12:51:38;4.20;;;2.38;;
50769;SDS011;36740;48.698;11.472;2023-07-29T12:54:23;2.55;;;1.60;;
50769;SDS011;36740;48.698;11.472;2023-07-29T12:57:09;3.95;;;2.33;;
50769;SDS011;36740;48.698;11.472;2023-07-29T12:59:56;3.00;;;1.65;;
50769;SDS011;36740;48.698;11.472;2023-07-29T13:02:41;3.17;;;2.13;;
50769;SDS011;36740;48.698;11.472;2023-07-29T13:05:27;3.08;;;1.83;;
50769;SDS011;36740;48.698;11.472;2023-07-29T13:08:13;4.10;;;1.95;;
50769;SDS011;36740;48.698;11.472;2023-07-29T13:10:59;5.97;;;2.30;;
50769;SDS011;36740;48.698;11.472;2023-07-29T13:13:45;3.58;;;2.00;;
50769;SDS011;36740;48.698;11.472;2023-07-29T13:16:30;2.58;;;1.65;;
50769;SDS011;36740;48.698;11.472;2023-07-29T13:19:18;2.42;;;1.40;;
50769;SDS011;36740;48.698;11.472;2023-07-29T13:22:03;1.48;;;1.15;;
50769;SDS011;36740;48.698;11.472;2023-07-29T13:24:49;5.15;;;2.05;;
50769;SDS011;36740;48.698;11.472;2023-07-29T13:27:35;2.70;;;1.20;;
50769;SDS011;36740;48.698;11.472;2023-07-29T13:30:23;3.47;;;2.58;;
50769;SDS011;36740;48.698;11.472;2023-07-29T13:33:09;2.08;;;1.50;;
50769;SDS011;36740;48.698;11.472;2023-07-29T13:35:54;3.00;;;2.15;;
50769;SDS011;36740;48.698;11.472;2023-07-29T13:38:40;2.38;;;1.25;;
50769;SDS011;36740;48.698;11.472;2023-07-29T13:41:29;2.00;;;1.42;;
50769;SDS011;36740;48.698;11.472;2023-07-29T13:44:15;3.30;;;2.00;;
50769;SDS011;36740;48.698;11.472;2023-07-29T13:47:03;2.40;;;1.42;;
50769;SDS011;36740;48.698;11.472;2023-07-29T13:49:49;4.47;;;1.80;;
50769;SDS011;36740;48.698;11.472;2023-07-29T13:52:35;5.90;;;3.03;;
50769;SDS011;36740;48.698;11.472;2023-07-29T13:55:21;2.45;;;1.33;;
50769;SDS011;36740;48.698;11.472;2023-07-29T13:58:07;2.67;;;1.67;;
50769;SDS011;36740;48.698;11.472;2023-07-29T14:00:52;2.92;;;1.85;;
50769;SDS011;36740;48.698;11.472;2023-07-29T14:03:38;2.88;;;1.42;;
50769;SDS011;36740;48.698;11.472;2023-07-29T14:06:24;3.58;;;2.28;;
50769;SDS011;36740;48.698;11.472;2023-07-29T14:09:10;2.72;;;1.55;;
50769;SDS011;36740;48.698;11.472;2023-07-29T14:11:55;2.08;;;1.35;;
50769;SDS011;36740;48.698;11.472;2023-07-29T14:14:41;1.85;;;1.00;;
50769;SDS011;36740;48.698;11.472;2023-07-29T14:17:28;3.10;;;1.40;;
50769;SDS011;36740;48.698;11.472;2023-07-29T14:20:15;2.53;;;1.30;;
50769;SDS011;36740;48.698;11.472;2023-07-29T14:23:00;3.88;;;1.17;;
50769;SDS011;36740;48.698;11.472;2023-07-29T14:25:46;1.65;;;1.38;;
50769;SDS011;36740;48.698;11.472;2023-07-29T14:28:32;2.40;;;1.60;;
50769;SDS011;36740;48.698;11.472;2023-07-29T14:31:17;2.13;;;1.40;;
50769;SDS011;36740;48.698;11.472;2023-07-29T14:34:04;1.55;;;1.38;;
50769;SDS011;36740;48.698;11.472;2023-07-29T14:36:50;4.63;;;1.10;;
50769;SDS011;36740;48.698;11.472;2023-07-29T14:39:35;2.35;;;1.02;;
50769;SDS011;36740;48.698;11.472;2023-07-29T14:42:21;2.55;;;1.00;;
50769;SDS011;36740;48.698;11.472;2023-07-29T14:45:07;2.40;;;1.02;;
50769;SDS011;36740;48.698;11.472;2023-07-29T14:47:52;5.68;;;1.13;;
50769;SDS011;36740;48.698;11.472;2023-07-29T14:50:38;2.47;;;1.17;;
50769;SDS011;36740;48.698;11.472;2023-07-29T14:53:26;3.30;;;1.50;;
50769;SDS011;36740;48.698;11.472;2023-07-29T14:56:12;2.03;;;1.17;;
50769;SDS011;36740;48.698;11.472;2023-07-29T14:59:03;2.42;;;1.20;;
50769;SDS011;36740;48.698;11.472;2023-07-29T15:01:48;4.30;;;1.05;;
50769;SDS011;36740;48.698;11.472;2023-07-29T15:04:34;2.63;;;1.35;;
50769;SDS011;36740;48.698;11.472;2023-07-29T15:07:20;1.58;;;1.05;;
50769;SDS011;36740;48.698;11.472;2023-07-29T15:10:05;2.75;;;1.30;;
50769;SDS011;36740;48.698;11.472;2023-07-29T15:12:51;0.82;;;0.77;;
50769;SDS011;36740;48.698;11.472;2023-07-29T15:15:39;1.35;;;1.20;;
50769;SDS011;36740;48.698;11.472;2023-07-29T15:18:25;1.40;;;1.30;;
50769;SDS011;36740;48.698;11.472;2023-07-29T15:21:15;1.75;;;1.38;;
50769;SDS011;36740;48.698;11.472;2023-07-29T15:24:03;2.08;;;0.98;;
50769;SDS011;36740;48.698;11.472;2023-07-29T15:26:48;1.42;;;1.10;;
50769;SDS011;36740;48.698;11.472;2023-07-29T15:29:37;3.13;;;1.70;;
50769;SDS011;36740;48.698;11.472;2023-07-29T15:32:23;1.73;;;1.10;;
50769;SDS011;36740;48.698;11.472;2023-07-29T15:35:08;1.88;;;1.13;;
50769;SDS011;36740;48.698;11.472;2023-07-29T15:37:54;1.10;;;1.00;;
50769;SDS011;36740;48.698;11.472;2023-07-29T15:40:42;2.58;;;1.33;;
50769;SDS011;36740;48.698;11.472;2023-07-29T15:43:27;1.00;;;0.90;;
50769;SDS011;36740;48.698;11.472;2023-07-29T15:46:13;2.45;;;1.35;;
50769;SDS011;36740;48.698;11.472;2023-07-29T15:48:59;1.35;;;0.90;;
50769;SDS011;36740;48.698;11.472;2023-07-29T15:51:47;1.25;;;1.02;;
50769;SDS011;36740;48.698;11.472;2023-07-29T15:54:36;2.70;;;1.08;;
50769;SDS011;36740;48.698;11.472;2023-07-29T15:57:21;2.67;;;1.33;;
50769;SDS011;36740;48.698;11.472;2023-07-29T16:00:07;2.30;;;1.30;;
50769;SDS011;36740;48.698;11.472;2023-07-29T16:02:55;1.98;;;1.05;;
50769;SDS011;36740;48.698;11.472;2023-07-29T16:05:43;3.30;;;1.45;;
50769;SDS011;36740;48.698;11.472;2023-07-29T16:08:28;1.65;;;1.13;;
50769;SDS011;36740;48.698;11.472;2023-07-29T16:11:14;1.85;;;1.27;;
50769;SDS011;36740;48.698;11.472;2023-07-29T16:14:00;2.83;;;1.25;;
50769;SDS011;36740;48.698;11.472;2023-07-29T16:16:45;1.85;;;1.55;;
50769;SDS011;36740;48.698;11.472;2023-07-29T16:19:32;4.80;;;1.55;;
50769;SDS011;36740;48.698;11.472;2023-07-29T16:22:17;1.13;;;1.10;;
50769;SDS011;36740;48.698;11.472;2023-07-29T16:25:03;3.38;;;1.65;;
50769;SDS011;36740;48.698;11.472;2023-07-29T16:27:49;1.42;;;1.13;;
50769;SDS011;36740;48.698;11.472;2023-07-29T16:30:35;6.38;;;2.28;;
50769;SDS011;36740;48.698;11.472;2023-07-29T16:33:21;2.38;;;1.33;;
50769;SDS011;36740;48.698;11.472;2023-07-29T16:36:07;2.72;;;1.58;;
50769;SDS011;36740;48.698;11.472;2023-07-29T16:38:52;2.53;;;1.58;;
50769;SDS011;36740;48.698;11.472;2023-07-29T16:41:38;3.72;;;1.83;;
50769;SDS011;36740;48.698;11.472;2023-07-29T16:44:23;3.25;;;2.00;;